sensor_id;sensor_type;location;lat;lon;timestamp;P1;durP1;ratioP1;P2;durP2;ratioP2
77571;SDS011;67214;47.454;18.966;2023-05-07T00:02:00;17.40;;;11.93;;
77571;SDS011;67214;47.454;18.966;2023-05-07T00:04:29;15.68;;;11.95;;
77571;SDS011;67214;47.454;18.966;2023-05-07T00:06:58;16.15;;;10.95;;
77571;SDS011;67214;47.454;18.966;2023-05-07T00:09:25;15.63;;;12.37;;
77571;SDS011;67214;47.454;18.966;2023-05-07T00:11:53;14.68;;;11.83;;
77571;SDS011;67214;47.454;18.966;2023-05-07T00:14:20;15.58;;;12.13;;
77571;SDS011;67214;47.454;18.966;2023-05-07T00:16:48;14.60;;;10.58;;
77571;SDS011;67214;47.454;18.966;2023-05-07T00:19:15;15.65;;;12.10;;
77571;SDS011;67214;47.454;18.966;2023-05-07T00:21:43;15.45;;;11.83;;
77571;SDS011;67214;47.454;18.966;2023-05-07T00:24:10;14.95;;;10.98;;
77571;SDS011;67214;47.454;18.966;2023-05-07T00:26:38;13.53;;;11.18;;
77571;SDS011;67214;47.454;18.966;2023-05-07T00:29:05;11.73;;;9.73;;
77571;SDS011;67214;47.454;18.966;2023-05-07T00:31:33;11.88;;;9.95;;
77571;SDS011;67214;47.454;18.966;2023-05-07T00:34:00;13.03;;;10.98;;
77571;SDS011;67214;47.454;18.966;2023-05-07T00:36:28;14.65;;;10.88;;
77571;SDS011;67214;47.454;18.966;2023-05-07T00:38:56;13.00;;;11.33;;
77571;SDS011;67214;47.454;18.966;2023-05-07T00:41:25;14.65;;;11.73;;
77571;SDS011;67214;47.454;18.966;2023-05-07T00:43:53;13.70;;;10.58;;
77571;SDS011;67214;47.454;18.966;2023-05-07T00:46:21;12.33;;;10.60;;
77571;SDS011;67214;47.454;18.966;2023-05-07T00:48:51;13.15;;;11.18;;
77571;SDS011;67214;47.454;18.966;2023-05-07T00:51:20;13.00;;;11.25;;
77571;SDS011;67214;47.454;18.966;2023-05-07T00:53:49;11.80;;;10.08;;
77571;SDS011;67214;47.454;18.966;2023-05-07T00:56:17;11.43;;;10.28;;
77571;SDS011;67214;47.454;18.966;2023-05-07T00:58:46;11.08;;;9.98;;
77571;SDS011;67214;47.454;18.966;2023-05-07T01:01:14;12.10;;;10.28;;
77571;SDS011;67214;47.454;18.966;2023-05-07T01:03:44;12.03;;;10.78;;
77571;SDS011;67214;47.454;18.966;2023-05-07T01:06:12;15.50;;;10.72;;
77571;SDS011;67214;47.454;18.966;2023-05-07T01:08:42;11.30;;;10.08;;
77571;SDS011;67214;47.454;18.966;2023-05-07T01:11:10;12.70;;;10.35;;
77571;SDS011;67214;47.454;18.966;2023-05-07T01:13:38;13.25;;;9.45;;
77571;SDS011;67214;47.454;18.966;2023-05-07T01:16:08;10.65;;;9.55;;
77571;SDS011;67214;47.454;18.966;2023-05-07T01:18:36;10.98;;;9.18;;
77571;SDS011;67214;47.454;18.966;2023-05-07T01:21:04;10.63;;;9.38;;
77571;SDS011;67214;47.454;18.966;2023-05-07T01:23:33;11.28;;;9.75;;
77571;SDS011;67214;47.454;18.966;2023-05-07T01:26:01;12.33;;;10.18;;
77571;SDS011;67214;47.454;18.966;2023-05-07T01:28:28;14.98;;;10.88;;
77571;SDS011;67214;47.454;18.966;2023-05-07T01:30:58;12.30;;;9.80;;
77571;SDS011;67214;47.454;18.966;2023-05-07T01:33:29;13.48;;;9.95;;
77571;SDS011;67214;47.454;18.966;2023-05-07T01:35:59;13.20;;;11.40;;
77571;SDS011;67214;47.454;18.966;2023-05-07T01:38:29;14.40;;;10.20;;
77571;SDS011;67214;47.454;18.966;2023-05-07T01:40:58;12.37;;;10.13;;
77571;SDS011;67214;47.454;18.966;2023-05-07T01:43:25;12.10;;;10.78;;
77571;SDS011;67214;47.454;18.966;2023-05-07T01:45:55;11.73;;;10.10;;
77571;SDS011;67214;47.454;18.966;2023-05-07T01:48:24;13.20;;;10.98;;
77571;SDS011;67214;47.454;18.966;2023-05-07T01:50:52;12.15;;;9.85;;
77571;SDS011;67214;47.454;18.966;2023-05-07T01:53:21;11.22;;;10.05;;
77571;SDS011;67214;47.454;18.966;2023-05-07T01:55:48;11.78;;;9.23;;
77571;SDS011;67214;47.454;18.966;2023-05-07T01:58:16;14.50;;;10.05;;
77571;SDS011;67214;47.454;18.966;2023-05-07T02:00:43;11.48;;;10.15;;
77571;SDS011;67214;47.454;18.966;2023-05-07T02:03:10;9.48;;;8.35;;
77571;SDS011;67214;47.454;18.966;2023-05-07T02:05:38;10.08;;;9.08;;
77571;SDS011;67214;47.454;18.966;2023-05-07T02:08:05;10.68;;;9.28;;
77571;SDS011;67214;47.454;18.966;2023-05-07T02:10:33;10.43;;;9.30;;
77571;SDS011;67214;47.454;18.966;2023-05-07T02:13:01;12.58;;;9.53;;
77571;SDS011;67214;47.454;18.966;2023-05-07T02:15:29;11.00;;;9.38;;
77571;SDS011;67214;47.454;18.966;2023-05-07T02:18:00;11.00;;;9.20;;
77571;SDS011;67214;47.454;18.966;2023-05-07T02:20:31;12.78;;;9.58;;
77571;SDS011;67214;47.454;18.966;2023-05-07T02:22:59;12.05;;;8.90;;
77571;SDS011;67214;47.454;18.966;2023-05-07T02:25:27;12.68;;;9.60;;
77571;SDS011;67214;47.454;18.966;2023-05-07T02:27:55;11.18;;;8.83;;
77571;SDS011;67214;47.454;18.966;2023-05-07T02:30:22;10.90;;;9.68;;
77571;SDS011;67214;47.454;18.966;2023-05-07T02:32:51;10.38;;;8.60;;
77571;SDS011;67214;47.454;18.966;2023-05-07T02:35:18;11.08;;;9.43;;
77571;SDS011;67214;47.454;18.966;2023-05-07T02:37:46;10.38;;;9.28;;
77571;SDS011;67214;47.454;18.966;2023-05-07T02:40:13;11.78;;;8.40;;
77571;SDS011;67214;47.454;18.966;2023-05-07T02:42:41;8.93;;;7.58;;
77571;SDS011;67214;47.454;18.966;2023-05-07T02:45:09;8.78;;;7.87;;
77571;SDS011;67214;47.454;18.966;2023-05-07T02:47:37;9.90;;;7.00;;
77571;SDS011;67214;47.454;18.966;2023-05-07T02:50:05;10.75;;;8.23;;
77571;SDS011;67214;47.454;18.966;2023-05-07T02:52:33;8.58;;;7.78;;
77571;SDS011;67214;47.454;18.966;2023-05-07T02:55:00;10.05;;;7.25;;
77571;SDS011;67214;47.454;18.966;2023-05-07T02:57:28;7.67;;;6.47;;
77571;SDS011;67214;47.454;18.966;2023-05-07T02:59:57;9.25;;;6.97;;
77571;SDS011;67214;47.454;18.966;2023-05-07T03:02:25;12.60;;;7.75;;
77571;SDS011;67214;47.454;18.966;2023-05-07T03:04:52;9.48;;;7.25;;
77571;SDS011;67214;47.454;18.966;2023-05-07T03:07:19;11.65;;;7.80;;
77571;SDS011;67214;47.454;18.966;2023-05-07T03:09:47;11.08;;;8.05;;
77571;SDS011;67214;47.454;18.966;2023-05-07T03:12:14;8.95;;;8.03;;
77571;SDS011;67214;47.454;18.966;2023-05-07T03:14:42;13.13;;;7.95;;
77571;SDS011;67214;47.454;18.966;2023-05-07T03:17:09;11.88;;;8.95;;
77571;SDS011;67214;47.454;18.966;2023-05-07T03:19:38;10.20;;;8.03;;
77571;SDS011;67214;47.454;18.966;2023-05-07T03:22:05;8.98;;;8.08;;
77571;SDS011;67214;47.454;18.966;2023-05-07T03:24:33;8.40;;;7.53;;
77571;SDS011;67214;47.454;18.966;2023-05-07T03:27:00;8.08;;;7.28;;
77571;SDS011;67214;47.454;18.966;2023-05-07T03:29:28;8.60;;;7.70;;
77571;SDS011;67214;47.454;18.966;2023-05-07T03:31:55;8.83;;;7.85;;
77571;SDS011;67214;47.454;18.966;2023-05-07T03:34:23;9.80;;;7.70;;
77571;SDS011;67214;47.454;18.966;2023-05-07T03:36:50;9.95;;;7.55;;
77571;SDS011;67214;47.454;18.966;2023-05-07T03:39:18;9.50;;;8.05;;
77571;SDS011;67214;47.454;18.966;2023-05-07T03:41:45;10.38;;;8.75;;
77571;SDS011;67214;47.454;18.966;2023-05-07T03:44:13;9.53;;;8.53;;
77571;SDS011;67214;47.454;18.966;2023-05-07T03:46:40;10.63;;;8.45;;
77571;SDS011;67214;47.454;18.966;2023-05-07T03:49:08;10.55;;;8.05;;
77571;SDS011;67214;47.454;18.966;2023-05-07T03:51:35;10.18;;;8.28;;
77571;SDS011;67214;47.454;18.966;2023-05-07T03:54:03;10.48;;;8.23;;
77571;SDS011;67214;47.454;18.966;2023-05-07T03:56:30;9.58;;;8.38;;
77571;SDS011;67214;47.454;18.966;2023-05-07T03:58:58;15.65;;;9.78;;
77571;SDS011;67214;47.454;18.966;2023-05-07T04:01:27;9.65;;;8.55;;
77571;SDS011;67214;47.454;18.966;2023-05-07T04:03:55;9.18;;;8.28;;
77571;SDS011;67214;47.454;18.966;2023-05-07T04:06:22;9.35;;;7.92;;
77571;SDS011;67214;47.454;18.966;2023-05-07T04:08:50;9.80;;;8.30;;
77571;SDS011;67214;47.454;18.966;2023-05-07T04:11:17;9.93;;;7.25;;
77571;SDS011;67214;47.454;18.966;2023-05-07T04:13:45;8.48;;;6.92;;
77571;SDS011;67214;47.454;18.966;2023-05-07T04:16:13;7.60;;;6.67;;
77571;SDS011;67214;47.454;18.966;2023-05-07T04:18:40;7.53;;;6.75;;
77571;SDS011;67214;47.454;18.966;2023-05-07T04:21:15;9.23;;;6.90;;
77571;SDS011;67214;47.454;18.966;2023-05-07T04:23:43;7.85;;;7.05;;
77571;SDS011;67214;47.454;18.966;2023-05-07T04:26:11;8.20;;;6.90;;
77571;SDS011;67214;47.454;18.966;2023-05-07T04:28:39;8.85;;;7.95;;
77571;SDS011;67214;47.454;18.966;2023-05-07T04:31:07;12.18;;;8.65;;
77571;SDS011;67214;47.454;18.966;2023-05-07T04:33:34;10.78;;;9.05;;
77571;SDS011;67214;47.454;18.966;2023-05-07T04:36:02;10.80;;;9.25;;
77571;SDS011;67214;47.454;18.966;2023-05-07T04:38:30;11.73;;;9.48;;
77571;SDS011;67214;47.454;18.966;2023-05-07T04:41:08;11.12;;;8.95;;
77571;SDS011;67214;47.454;18.966;2023-05-07T04:43:30;11.45;;;8.88;;
77571;SDS011;67214;47.454;18.966;2023-05-07T04:45:58;10.65;;;8.83;;
77571;SDS011;67214;47.454;18.966;2023-05-07T04:48:26;11.33;;;9.55;;
77571;SDS011;67214;47.454;18.966;2023-05-07T04:50:54;11.55;;;9.78;;
77571;SDS011;67214;47.454;18.966;2023-05-07T04:53:22;10.48;;;9.38;;
77571;SDS011;67214;47.454;18.966;2023-05-07T04:55:54;10.53;;;9.20;;
77571;SDS011;67214;47.454;18.966;2023-05-07T04:58:23;10.70;;;9.30;;
77571;SDS011;67214;47.454;18.966;2023-05-07T05:00:51;10.60;;;8.43;;
77571;SDS011;67214;47.454;18.966;2023-05-07T05:03:18;9.10;;;8.00;;
77571;SDS011;67214;47.454;18.966;2023-05-07T05:05:45;7.92;;;7.12;;
77571;SDS011;67214;47.454;18.966;2023-05-07T05:08:14;7.78;;;6.97;;
77571;SDS011;67214;47.454;18.966;2023-05-07T05:10:42;7.03;;;6.33;;
77571;SDS011;67214;47.454;18.966;2023-05-07T05:13:10;9.08;;;7.35;;
77571;SDS011;67214;47.454;18.966;2023-05-07T05:15:38;8.75;;;6.47;;
77571;SDS011;67214;47.454;18.966;2023-05-07T05:18:05;8.73;;;7.83;;
77571;SDS011;67214;47.454;18.966;2023-05-07T05:20:33;8.68;;;7.08;;
77571;SDS011;67214;47.454;18.966;2023-05-07T05:23:00;8.13;;;7.33;;
77571;SDS011;67214;47.454;18.966;2023-05-07T05:25:28;8.50;;;7.37;;
77571;SDS011;67214;47.454;18.966;2023-05-07T05:27:56;9.33;;;7.55;;
77571;SDS011;67214;47.454;18.966;2023-05-07T05:30:23;13.15;;;7.37;;
77571;SDS011;67214;47.454;18.966;2023-05-07T05:32:51;9.00;;;6.05;;
77571;SDS011;67214;47.454;18.966;2023-05-07T05:35:18;6.75;;;6.05;;
77571;SDS011;67214;47.454;18.966;2023-05-07T05:37:45;6.67;;;5.75;;
77571;SDS011;67214;47.454;18.966;2023-05-07T05:40:13;10.03;;;6.55;;
77571;SDS011;67214;47.454;18.966;2023-05-07T05:42:41;6.78;;;5.40;;
77571;SDS011;67214;47.454;18.966;2023-05-07T05:45:08;7.00;;;5.78;;
77571;SDS011;67214;47.454;18.966;2023-05-07T05:47:37;5.70;;;5.20;;
77571;SDS011;67214;47.454;18.966;2023-05-07T05:50:05;6.50;;;5.33;;
77571;SDS011;67214;47.454;18.966;2023-05-07T05:52:34;6.28;;;5.25;;
77571;SDS011;67214;47.454;18.966;2023-05-07T05:55:01;6.97;;;5.97;;
77571;SDS011;67214;47.454;18.966;2023-05-07T05:57:29;9.08;;;5.15;;
77571;SDS011;67214;47.454;18.966;2023-05-07T05:59:57;6.62;;;5.30;;
77571;SDS011;67214;47.454;18.966;2023-05-07T06:02:24;6.03;;;5.22;;
77571;SDS011;67214;47.454;18.966;2023-05-07T06:04:52;5.40;;;4.90;;
77571;SDS011;67214;47.454;18.966;2023-05-07T06:07:19;6.50;;;4.50;;
77571;SDS011;67214;47.454;18.966;2023-05-07T06:09:47;4.97;;;4.03;;
77571;SDS011;67214;47.454;18.966;2023-05-07T06:12:14;6.00;;;4.40;;
77571;SDS011;67214;47.454;18.966;2023-05-07T06:14:44;5.20;;;3.92;;
77571;SDS011;67214;47.454;18.966;2023-05-07T06:17:12;5.15;;;4.10;;
77571;SDS011;67214;47.454;18.966;2023-05-07T06:19:39;5.60;;;4.45;;
77571;SDS011;67214;47.454;18.966;2023-05-07T06:22:06;6.80;;;4.35;;
77571;SDS011;67214;47.454;18.966;2023-05-07T06:24:34;5.85;;;4.62;;
77571;SDS011;67214;47.454;18.966;2023-05-07T06:27:01;6.40;;;4.30;;
77571;SDS011;67214;47.454;18.966;2023-05-07T06:29:29;5.60;;;4.25;;
77571;SDS011;67214;47.454;18.966;2023-05-07T06:32:05;6.72;;;4.60;;
77571;SDS011;67214;47.454;18.966;2023-05-07T06:34:36;4.42;;;4.03;;
77571;SDS011;67214;47.454;18.966;2023-05-07T06:37:05;6.42;;;4.30;;
77571;SDS011;67214;47.454;18.966;2023-05-07T06:39:33;6.12;;;4.50;;
77571;SDS011;67214;47.454;18.966;2023-05-07T06:42:00;5.58;;;4.20;;
77571;SDS011;67214;47.454;18.966;2023-05-07T06:44:30;4.70;;;3.95;;
77571;SDS011;67214;47.454;18.966;2023-05-07T06:46:58;5.33;;;4.12;;
77571;SDS011;67214;47.454;18.966;2023-05-07T06:49:25;4.97;;;3.90;;
77571;SDS011;67214;47.454;18.966;2023-05-07T06:51:53;4.65;;;3.95;;
77571;SDS011;67214;47.454;18.966;2023-05-07T06:54:21;4.90;;;3.90;;
77571;SDS011;67214;47.454;18.966;2023-05-07T06:56:49;4.90;;;3.80;;
77571;SDS011;67214;47.454;18.966;2023-05-07T06:59:17;6.87;;;4.03;;
77571;SDS011;67214;47.454;18.966;2023-05-07T07:01:44;5.05;;;3.92;;
77571;SDS011;67214;47.454;18.966;2023-05-07T07:04:12;7.25;;;3.72;;
77571;SDS011;67214;47.454;18.966;2023-05-07T07:06:40;5.05;;;4.22;;
77571;SDS011;67214;47.454;18.966;2023-05-07T07:09:07;4.25;;;3.85;;
77571;SDS011;67214;47.454;18.966;2023-05-07T07:11:35;4.33;;;3.90;;
77571;SDS011;67214;47.454;18.966;2023-05-07T07:14:02;5.90;;;3.87;;
77571;SDS011;67214;47.454;18.966;2023-05-07T07:16:30;3.83;;;3.40;;
77571;SDS011;67214;47.454;18.966;2023-05-07T07:18:58;5.00;;;2.98;;
77571;SDS011;67214;47.454;18.966;2023-05-07T07:21:25;3.80;;;3.40;;
77571;SDS011;67214;47.454;18.966;2023-05-07T07:23:53;3.80;;;3.35;;
77571;SDS011;67214;47.454;18.966;2023-05-07T07:26:20;4.15;;;3.40;;
77571;SDS011;67214;47.454;18.966;2023-05-07T07:28:48;4.97;;;3.50;;
77571;SDS011;67214;47.454;18.966;2023-05-07T07:31:15;6.87;;;3.42;;
77571;SDS011;67214;47.454;18.966;2023-05-07T07:33:43;3.62;;;2.80;;
77571;SDS011;67214;47.454;18.966;2023-05-07T07:36:10;2.83;;;2.52;;
77571;SDS011;67214;47.454;18.966;2023-05-07T07:38:38;4.30;;;2.42;;
77571;SDS011;67214;47.454;18.966;2023-05-07T07:41:07;4.25;;;3.50;;
77571;SDS011;67214;47.454;18.966;2023-05-07T07:43:35;5.08;;;4.03;;
77571;SDS011;67214;47.454;18.966;2023-05-07T07:46:02;4.05;;;3.33;;
77571;SDS011;67214;47.454;18.966;2023-05-07T07:48:30;7.55;;;6.05;;
77571;SDS011;67214;47.454;18.966;2023-05-07T07:50:57;6.70;;;5.97;;
77571;SDS011;67214;47.454;18.966;2023-05-07T07:53:25;7.28;;;6.10;;
77571;SDS011;67214;47.454;18.966;2023-05-07T07:55:53;7.20;;;6.50;;
77571;SDS011;67214;47.454;18.966;2023-05-07T07:58:21;8.80;;;6.28;;
77571;SDS011;67214;47.454;18.966;2023-05-07T08:00:50;6.90;;;6.20;;
77571;SDS011;67214;47.454;18.966;2023-05-07T08:03:17;6.65;;;6.05;;
77571;SDS011;67214;47.454;18.966;2023-05-07T08:05:45;6.75;;;5.78;;
77571;SDS011;67214;47.454;18.966;2023-05-07T08:08:12;6.45;;;5.85;;
77571;SDS011;67214;47.454;18.966;2023-05-07T08:10:40;8.15;;;5.95;;
77571;SDS011;67214;47.454;18.966;2023-05-07T08:13:07;6.72;;;5.78;;
77571;SDS011;67214;47.454;18.966;2023-05-07T08:15:35;9.28;;;6.90;;
77571;SDS011;67214;47.454;18.966;2023-05-07T08:18:02;8.40;;;7.42;;
77571;SDS011;67214;47.454;18.966;2023-05-07T08:20:30;10.28;;;9.28;;
77571;SDS011;67214;47.454;18.966;2023-05-07T08:22:58;10.88;;;9.78;;
77571;SDS011;67214;47.454;18.966;2023-05-07T08:25:26;12.75;;;10.53;;
77571;SDS011;67214;47.454;18.966;2023-05-07T08:27:53;12.63;;;10.98;;
77571;SDS011;67214;47.454;18.966;2023-05-07T08:30:21;13.48;;;11.18;;
77571;SDS011;67214;47.454;18.966;2023-05-07T08:32:48;12.65;;;11.43;;
77571;SDS011;67214;47.454;18.966;2023-05-07T08:35:16;13.38;;;10.85;;
77571;SDS011;67214;47.454;18.966;2023-05-07T08:37:43;12.40;;;10.80;;
77571;SDS011;67214;47.454;18.966;2023-05-07T08:40:11;10.85;;;9.75;;
77571;SDS011;67214;47.454;18.966;2023-05-07T08:42:39;11.12;;;9.15;;
77571;SDS011;67214;47.454;18.966;2023-05-07T08:45:08;9.85;;;8.85;;
77571;SDS011;67214;47.454;18.966;2023-05-07T08:47:43;10.78;;;9.70;;
77571;SDS011;67214;47.454;18.966;2023-05-07T08:50:13;10.88;;;9.33;;
77571;SDS011;67214;47.454;18.966;2023-05-07T08:52:41;10.50;;;9.50;;
77571;SDS011;67214;47.454;18.966;2023-05-07T08:55:08;9.50;;;8.50;;
77571;SDS011;67214;47.454;18.966;2023-05-07T08:57:37;10.00;;;8.53;;
77571;SDS011;67214;47.454;18.966;2023-05-07T09:00:04;12.23;;;7.47;;
77571;SDS011;67214;47.454;18.966;2023-05-07T09:02:39;8.60;;;6.05;;
77571;SDS011;67214;47.454;18.966;2023-05-07T09:05:02;8.25;;;6.22;;
77571;SDS011;67214;47.454;18.966;2023-05-07T09:07:30;7.25;;;6.22;;
77571;SDS011;67214;47.454;18.966;2023-05-07T09:09:58;6.60;;;5.37;;
77571;SDS011;67214;47.454;18.966;2023-05-07T09:12:30;7.28;;;5.67;;
77571;SDS011;67214;47.454;18.966;2023-05-07T09:15:00;7.47;;;6.10;;
77571;SDS011;67214;47.454;18.966;2023-05-07T09:17:28;6.58;;;4.72;;
77571;SDS011;67214;47.454;18.966;2023-05-07T09:19:55;5.50;;;5.00;;
77571;SDS011;67214;47.454;18.966;2023-05-07T09:22:24;5.50;;;4.40;;
77571;SDS011;67214;47.454;18.966;2023-05-07T09:24:52;7.00;;;5.60;;
77571;SDS011;67214;47.454;18.966;2023-05-07T09:27:19;6.83;;;5.72;;
77571;SDS011;67214;47.454;18.966;2023-05-07T09:29:47;5.72;;;5.12;;
77571;SDS011;67214;47.454;18.966;2023-05-07T09:32:14;5.95;;;4.92;;
77571;SDS011;67214;47.454;18.966;2023-05-07T09:34:42;6.87;;;5.28;;
77571;SDS011;67214;47.454;18.966;2023-05-07T09:37:10;6.10;;;5.50;;
77571;SDS011;67214;47.454;18.966;2023-05-07T09:39:40;7.35;;;4.00;;
77571;SDS011;67214;47.454;18.966;2023-05-07T09:42:12;6.80;;;4.83;;
77571;SDS011;67214;47.454;18.966;2023-05-07T09:44:43;6.53;;;4.90;;
77571;SDS011;67214;47.454;18.966;2023-05-07T09:47:11;7.17;;;4.87;;
77571;SDS011;67214;47.454;18.966;2023-05-07T09:49:40;5.95;;;3.52;;
77571;SDS011;67214;47.454;18.966;2023-05-07T09:52:10;5.33;;;3.70;;
77571;SDS011;67214;47.454;18.966;2023-05-07T09:54:40;3.75;;;3.17;;
77571;SDS011;67214;47.454;18.966;2023-05-07T09:57:12;4.25;;;3.47;;
77571;SDS011;67214;47.454;18.966;2023-05-07T09:59:42;5.90;;;4.42;;
77571;SDS011;67214;47.454;18.966;2023-05-07T10:02:11;5.65;;;3.58;;
77571;SDS011;67214;47.454;18.966;2023-05-07T10:04:41;4.25;;;3.42;;
77571;SDS011;67214;47.454;18.966;2023-05-07T10:07:09;6.70;;;3.40;;
77571;SDS011;67214;47.454;18.966;2023-05-07T10:09:36;3.70;;;3.40;;
77571;SDS011;67214;47.454;18.966;2023-05-07T10:12:07;4.70;;;4.22;;
77571;SDS011;67214;47.454;18.966;2023-05-07T10:14:35;5.53;;;4.67;;
77571;SDS011;67214;47.454;18.966;2023-05-07T10:17:03;5.60;;;5.10;;
77571;SDS011;67214;47.454;18.966;2023-05-07T10:19:32;8.58;;;6.80;;
77571;SDS011;67214;47.454;18.966;2023-05-07T10:22:03;10.78;;;7.58;;
77571;SDS011;67214;47.454;18.966;2023-05-07T10:24:32;9.38;;;7.53;;
77571;SDS011;67214;47.454;18.966;2023-05-07T10:27:01;10.08;;;7.75;;
77571;SDS011;67214;47.454;18.966;2023-05-07T10:29:32;10.23;;;6.75;;
77571;SDS011;67214;47.454;18.966;2023-05-07T10:34:59;9.35;;;6.92;;
77571;SDS011;67214;47.454;18.966;2023-05-07T10:37:29;12.35;;;9.20;;
77571;SDS011;67214;47.454;18.966;2023-05-07T10:39:57;8.95;;;7.95;;
77571;SDS011;67214;47.454;18.966;2023-05-07T10:42:25;7.92;;;6.65;;
77571;SDS011;67214;47.454;18.966;2023-05-07T10:44:52;9.80;;;8.70;;
77571;SDS011;67214;47.454;18.966;2023-05-07T10:47:20;7.12;;;5.42;;
77571;SDS011;67214;47.454;18.966;2023-05-07T10:52:19;5.33;;;4.15;;
77571;SDS011;67214;47.454;18.966;2023-05-07T10:54:48;11.10;;;5.67;;
77571;SDS011;67214;47.454;18.966;2023-05-07T10:57:34;7.00;;;5.45;;
77571;SDS011;67214;47.454;18.966;2023-05-07T11:05:31;8.53;;;5.37;;
77571;SDS011;67214;47.454;18.966;2023-05-07T11:08:00;4.80;;;4.05;;
77571;SDS011;67214;47.454;18.966;2023-05-07T11:10:47;8.18;;;3.35;;
77571;SDS011;67214;47.454;18.966;2023-05-07T11:13:16;5.97;;;3.70;;
77571;SDS011;67214;47.454;18.966;2023-05-07T11:15:45;10.05;;;3.83;;
77571;SDS011;67214;47.454;18.966;2023-05-07T11:18:14;4.50;;;3.20;;
77571;SDS011;67214;47.454;18.966;2023-05-07T11:26:07;7.22;;;4.40;;
77571;SDS011;67214;47.454;18.966;2023-05-07T11:28:38;4.95;;;3.67;;
77571;SDS011;67214;47.454;18.966;2023-05-07T11:31:07;4.35;;;3.40;;
77571;SDS011;67214;47.454;18.966;2023-05-07T11:33:35;6.53;;;3.37;;
77571;SDS011;67214;47.454;18.966;2023-05-07T11:36:04;3.30;;;2.87;;
77571;SDS011;67214;47.454;18.966;2023-05-07T11:38:37;5.00;;;3.80;;
77571;SDS011;67214;47.454;18.966;2023-05-07T11:41:05;5.45;;;3.83;;
77571;SDS011;67214;47.454;18.966;2023-05-07T11:43:33;5.00;;;4.12;;
77571;SDS011;67214;47.454;18.966;2023-05-07T11:46:05;7.25;;;4.17;;
77571;SDS011;67214;47.454;18.966;2023-05-07T11:48:36;3.33;;;2.90;;
77571;SDS011;67214;47.454;18.966;2023-05-07T11:51:05;3.45;;;3.00;;
77571;SDS011;67214;47.454;18.966;2023-05-07T11:53:39;5.62;;;3.22;;
77571;SDS011;67214;47.454;18.966;2023-05-07T11:56:09;3.92;;;3.35;;
77571;SDS011;67214;47.454;18.966;2023-05-07T11:58:37;4.78;;;2.85;;
77571;SDS011;67214;47.454;18.966;2023-05-07T12:01:07;3.40;;;3.10;;
77571;SDS011;67214;47.454;18.966;2023-05-07T12:03:36;4.65;;;3.30;;
77571;SDS011;67214;47.454;18.966;2023-05-07T12:06:05;6.10;;;3.00;;
77571;SDS011;67214;47.454;18.966;2023-05-07T12:08:35;3.70;;;2.35;;
77571;SDS011;67214;47.454;18.966;2023-05-07T12:11:14;4.15;;;2.90;;
77571;SDS011;67214;47.454;18.966;2023-05-07T12:13:44;3.62;;;3.33;;
77571;SDS011;67214;47.454;18.966;2023-05-07T12:16:11;4.58;;;3.25;;
77571;SDS011;67214;47.454;18.966;2023-05-07T12:18:40;3.25;;;2.75;;
77571;SDS011;67214;47.454;18.966;2023-05-07T12:21:08;5.97;;;3.33;;
77571;SDS011;67214;47.454;18.966;2023-05-07T12:23:36;10.05;;;3.60;;
77571;SDS011;67214;47.454;18.966;2023-05-07T12:26:04;4.05;;;3.33;;
77571;SDS011;67214;47.454;18.966;2023-05-07T12:28:36;3.87;;;3.08;;
77571;SDS011;67214;47.454;18.966;2023-05-07T12:31:05;4.17;;;3.60;;
77571;SDS011;67214;47.454;18.966;2023-05-07T12:33:33;4.47;;;3.30;;
77571;SDS011;67214;47.454;18.966;2023-05-07T12:36:03;6.30;;;3.90;;
77571;SDS011;67214;47.454;18.966;2023-05-07T12:38:37;6.00;;;3.30;;
77571;SDS011;67214;47.454;18.966;2023-05-07T12:41:07;5.40;;;3.50;;
77571;SDS011;67214;47.454;18.966;2023-05-07T12:43:36;12.80;;;3.65;;
77571;SDS011;67214;47.454;18.966;2023-05-07T12:46:05;4.33;;;3.22;;
77571;SDS011;67214;47.454;18.966;2023-05-07T12:48:35;3.72;;;3.30;;
77571;SDS011;67214;47.454;18.966;2023-05-07T12:51:04;4.28;;;3.12;;
77571;SDS011;67214;47.454;18.966;2023-05-07T12:53:34;4.65;;;3.25;;
77571;SDS011;67214;47.454;18.966;2023-05-07T12:56:05;4.47;;;3.37;;
77571;SDS011;67214;47.454;18.966;2023-05-07T12:58:33;4.08;;;3.00;;
77571;SDS011;67214;47.454;18.966;2023-05-07T13:01:05;4.10;;;3.37;;
77571;SDS011;67214;47.454;18.966;2023-05-07T13:03:35;5.37;;;3.27;;
77571;SDS011;67214;47.454;18.966;2023-05-07T13:06:06;6.65;;;4.30;;
77571;SDS011;67214;47.454;18.966;2023-05-07T13:08:39;4.83;;;3.12;;
77571;SDS011;67214;47.454;18.966;2023-05-07T13:11:11;3.02;;;2.67;;
77571;SDS011;67214;47.454;18.966;2023-05-07T13:13:39;4.62;;;3.00;;
77571;SDS011;67214;47.454;18.966;2023-05-07T13:16:08;6.15;;;2.85;;
77571;SDS011;67214;47.454;18.966;2023-05-07T13:18:38;3.70;;;2.90;;
77571;SDS011;67214;47.454;18.966;2023-05-07T13:21:08;3.67;;;2.80;;
77571;SDS011;67214;47.454;18.966;2023-05-07T13:23:36;4.72;;;2.85;;
77571;SDS011;67214;47.454;18.966;2023-05-07T13:26:03;3.90;;;3.27;;
77571;SDS011;67214;47.454;18.966;2023-05-07T13:28:31;3.58;;;3.12;;
77571;SDS011;67214;47.454;18.966;2023-05-07T13:30:58;3.75;;;2.47;;
77571;SDS011;67214;47.454;18.966;2023-05-07T13:33:26;2.67;;;2.40;;
77571;SDS011;67214;47.454;18.966;2023-05-07T13:35:54;8.68;;;2.90;;
77571;SDS011;67214;47.454;18.966;2023-05-07T13:38:22;7.42;;;4.17;;
77571;SDS011;67214;47.454;18.966;2023-05-07T13:40:50;6.78;;;4.10;;
77571;SDS011;67214;47.454;18.966;2023-05-07T13:43:17;4.60;;;3.27;;
77571;SDS011;67214;47.454;18.966;2023-05-07T13:45:45;5.53;;;3.30;;
77571;SDS011;67214;47.454;18.966;2023-05-07T13:48:12;5.22;;;3.92;;
77571;SDS011;67214;47.454;18.966;2023-05-07T13:50:40;4.65;;;4.17;;
77571;SDS011;67214;47.454;18.966;2023-05-07T13:53:08;4.87;;;4.20;;
77571;SDS011;67214;47.454;18.966;2023-05-07T13:55:35;6.10;;;4.37;;
77571;SDS011;67214;47.454;18.966;2023-05-07T13:58:03;8.35;;;3.58;;
77571;SDS011;67214;47.454;18.966;2023-05-07T14:00:30;4.70;;;3.92;;
77571;SDS011;67214;47.454;18.966;2023-05-07T14:02:58;6.58;;;3.50;;
77571;SDS011;67214;47.454;18.966;2023-05-07T14:05:25;6.62;;;3.25;;
77571;SDS011;67214;47.454;18.966;2023-05-07T14:07:54;4.05;;;3.27;;
77571;SDS011;67214;47.454;18.966;2023-05-07T14:10:23;4.08;;;3.42;;
77571;SDS011;67214;47.454;18.966;2023-05-07T14:12:51;4.58;;;3.70;;
77571;SDS011;67214;47.454;18.966;2023-05-07T14:15:18;6.75;;;3.70;;
77571;SDS011;67214;47.454;18.966;2023-05-07T14:17:46;4.22;;;3.40;;
77571;SDS011;67214;47.454;18.966;2023-05-07T14:20:13;2.80;;;2.50;;
77571;SDS011;67214;47.454;18.966;2023-05-07T14:22:41;4.95;;;2.92;;
77571;SDS011;67214;47.454;18.966;2023-05-07T14:25:08;3.05;;;2.65;;
77571;SDS011;67214;47.454;18.966;2023-05-07T14:27:36;3.47;;;3.05;;
77571;SDS011;67214;47.454;18.966;2023-05-07T14:30:04;4.75;;;3.92;;
77571;SDS011;67214;47.454;18.966;2023-05-07T14:32:32;5.12;;;3.50;;
77571;SDS011;67214;47.454;18.966;2023-05-07T14:35:00;5.25;;;3.62;;
77571;SDS011;67214;47.454;18.966;2023-05-07T14:37:28;4.20;;;3.52;;
77571;SDS011;67214;47.454;18.966;2023-05-07T14:39:55;9.58;;;4.78;;
77571;SDS011;67214;47.454;18.966;2023-05-07T14:42:23;3.65;;;3.33;;
77571;SDS011;67214;47.454;18.966;2023-05-07T14:44:51;4.60;;;3.58;;
77571;SDS011;67214;47.454;18.966;2023-05-07T14:47:18;4.33;;;3.85;;
77571;SDS011;67214;47.454;18.966;2023-05-07T14:49:46;4.92;;;4.42;;
77571;SDS011;67214;47.454;18.966;2023-05-07T14:52:13;6.87;;;4.40;;